sensor_id;sensor_type;location;lat;lon;timestamp;P1;P2;P0
43479;PMS5003;29067;35.492;-97.520;2023-11-19T00:00:09;4;3;
43479;PMS5003;29067;35.492;-97.520;2023-11-19T00:02:38;3;2;
43479;PMS5003;29067;35.492;-97.520;2023-11-19T00:05:06;3;3;
43479;PMS5003;29067;35.492;-97.520;2023-11-19T00:07:35;3;3;
43479;PMS5003;29067;35.492;-97.520;2023-11-19T00:10:03;3;3;
43479;PMS5003;29067;35.492;-97.520;2023-11-19T00:12:33;4;4;
43479;PMS5003;29067;35.492;-97.520;2023-11-19T00:15:00;4;4;
43479;PMS5003;29067;35.492;-97.520;2023-11-19T00:17:28;4;3;
43479;PMS5003;29067;35.492;-97.520;2023-11-19T00:19:56;5;4;
43479;PMS5003;29067;35.492;-97.520;2023-11-19T00:22:24;4;4;
43479;PMS5003;29067;35.492;-97.520;2023-11-19T00:24:51;8;6;
43479;PMS5003;29067;35.492;-97.520;2023-11-19T00:27:19;6;5;
43479;PMS5003;29067;35.492;-97.520;2023-11-19T00:29:46;9;8;
43479;PMS5003;29067;35.492;-97.520;2023-11-19T00:32:14;13;13;
43479;PMS5003;29067;35.492;-97.520;2023-11-19T00:34:43;11;11;
43479;PMS5003;29067;35.492;-97.520;2023-11-19T00:37:11;4;4;
43479;PMS5003;29067;35.492;-97.520;2023-11-19T00:39:39;5;5;
43479;PMS5003;29067;35.492;-97.520;2023-11-19T00:42:07;5;4;
43479;PMS5003;29067;35.492;-97.520;2023-11-19T00:44:35;6;6;
43479;PMS5003;29067;35.492;-97.520;2023-11-19T00:47:03;8;8;
43479;PMS5003;29067;35.492;-97.520;2023-11-19T00:49:31;6;6;
43479;PMS5003;29067;35.492;-97.520;2023-11-19T00:51:59;6;6;
43479;PMS5003;29067;35.492;-97.520;2023-11-19T00:54:27;6;6;
43479;PMS5003;29067;35.492;-97.520;2023-11-19T00:56:55;9;7;
43479;PMS5003;29067;35.492;-97.520;2023-11-19T00:59:22;6;5;
43479;PMS5003;29067;35.492;-97.520;2023-11-19T01:01:50;5;5;
43479;PMS5003;29067;35.492;-97.520;2023-11-19T01:04:18;4;4;
43479;PMS5003;29067;35.492;-97.520;2023-11-19T01:06:45;5;5;
43479;PMS5003;29067;35.492;-97.520;2023-11-19T01:09:13;6;6;
43479;PMS5003;29067;35.492;-97.520;2023-11-19T01:11:41;5;5;
43479;PMS5003;29067;35.492;-97.520;2023-11-19T01:14:09;4;4;
43479;PMS5003;29067;35.492;-97.520;2023-11-19T01:16:36;5;5;
43479;PMS5003;29067;35.492;-97.520;2023-11-19T01:19:04;4;4;
43479;PMS5003;29067;35.492;-97.520;2023-11-19T01:21:32;8;6;
43479;PMS5003;29067;35.492;-97.520;2023-11-19T01:24:00;4;3;
43479;PMS5003;29067;35.492;-97.520;2023-11-19T01:26:28;5;4;
43479;PMS5003;29067;35.492;-97.520;2023-11-19T01:28:56;3;3;
43479;PMS5003;29067;35.492;-97.520;2023-11-19T01:31:24;3;3;
43479;PMS5003;29067;35.492;-97.520;2023-11-19T01:33:52;4;4;
43479;PMS5003;29067;35.492;-97.520;2023-11-19T01:36:19;5;5;
43479;PMS5003;29067;35.492;-97.520;2023-11-19T01:38:47;7;6;
43479;PMS5003;29067;35.492;-97.520;2023-11-19T01:41:15;5;4;
43479;PMS5003;29067;35.492;-97.520;2023-11-19T01:43:42;6;6;
43479;PMS5003;29067;35.492;-97.520;2023-11-19T01:46:10;5;5;
43479;PMS5003;29067;35.492;-97.520;2023-11-19T01:48:41;5;5;
43479;PMS5003;29067;35.492;-97.520;2023-11-19T01:51:12;5;5;
43479;PMS5003;29067;35.492;-97.520;2023-11-19T01:53:40;4;4;
43479;PMS5003;29067;35.492;-97.520;2023-11-19T01:56:11;4;4;
43479;PMS5003;29067;35.492;-97.520;2023-11-19T01:58:42;4;4;
43479;PMS5003;29067;35.492;-97.520;2023-11-19T02:01:12;6;5;
43479;PMS5003;29067;35.492;-97.520;2023-11-19T02:03:42;5;5;
43479;PMS5003;29067;35.492;-97.520;2023-11-19T02:06:09;4;4;
43479;PMS5003;29067;35.492;-97.520;2023-11-19T02:08:37;5;5;
43479;PMS5003;29067;35.492;-97.520;2023-11-19T02:11:05;4;4;
43479;PMS5003;29067;35.492;-97.520;2023-11-19T02:13:33;5;5;
43479;PMS5003;29067;35.492;-97.520;2023-11-19T02:16:04;5;4;
43479;PMS5003;29067;35.492;-97.520;2023-11-19T02:18:32;4;4;
43479;PMS5003;29067;35.492;-97.520;2023-11-19T02:21:00;6;6;
43479;PMS5003;29067;35.492;-97.520;2023-11-19T02:23:28;4;4;
43479;PMS5003;29067;35.492;-97.520;2023-11-19T02:26:02;5;5;
43479;PMS5003;29067;35.492;-97.520;2023-11-19T02:28:36;3;3;
43479;PMS5003;29067;35.492;-97.520;2023-11-19T02:31:04;7;4;
43479;PMS5003;29067;35.492;-97.520;2023-11-19T02:33:33;5;5;
43479;PMS5003;29067;35.492;-97.520;2023-11-19T02:36:00;5;4;
43479;PMS5003;29067;35.492;-97.520;2023-11-19T02:38:28;4;4;
43479;PMS5003;29067;35.492;-97.520;2023-11-19T02:40:56;6;6;
43479;PMS5003;29067;35.492;-97.520;2023-11-19T02:43:24;6;6;
43479;PMS5003;29067;35.492;-97.520;2023-11-19T02:45:51;5;4;
43479;PMS5003;29067;35.492;-97.520;2023-11-19T02:48:19;6;6;
43479;PMS5003;29067;35.492;-97.520;2023-11-19T02:50:47;6;6;
43479;PMS5003;29067;35.492;-97.520;2023-11-19T02:53:14;6;6;
43479;PMS5003;29067;35.492;-97.520;2023-11-19T02:55:42;5;5;
43479;PMS5003;29067;35.492;-97.520;2023-11-19T02:58:10;6;6;
43479;PMS5003;29067;35.492;-97.520;2023-11-19T03:00:39;6;6;
43479;PMS5003;29067;35.492;-97.520;2023-11-19T03:03:07;8;7;
43479;PMS5003;29067;35.492;-97.520;2023-11-19T03:05:36;7;6;
43479;PMS5003;29067;35.492;-97.520;2023-11-19T03:08:04;4;4;
43479;PMS5003;29067;35.492;-97.520;2023-11-19T03:10:32;5;4;
43479;PMS5003;29067;35.492;-97.520;2023-11-19T03:13:00;5;5;
43479;PMS5003;29067;35.492;-97.520;2023-11-19T03:15:28;5;5;
43479;PMS5003;29067;35.492;-97.520;2023-11-19T03:17:56;4;4;
43479;PMS5003;29067;35.492;-97.520;2023-11-19T03:20:24;4;4;
43479;PMS5003;29067;35.492;-97.520;2023-11-19T03:22:52;5;5;
43479;PMS5003;29067;35.492;-97.520;2023-11-19T03:25:19;5;5;
43479;PMS5003;29067;35.492;-97.520;2023-11-19T03:27:47;7;7;
43479;PMS5003;29067;35.492;-97.520;2023-11-19T03:30:16;8;7;
43479;PMS5003;29067;35.492;-97.520;2023-11-19T03:32:43;5;5;
43479;PMS5003;29067;35.492;-97.520;2023-11-19T03:35:11;7;6;
43479;PMS5003;29067;35.492;-97.520;2023-11-19T03:37:39;6;6;
43479;PMS5003;29067;35.492;-97.520;2023-11-19T03:40:07;8;8;
43479;PMS5003;29067;35.492;-97.520;2023-11-19T03:42:35;7;7;
43479;PMS5003;29067;35.492;-97.520;2023-11-19T03:45:03;7;7;
43479;PMS5003;29067;35.492;-97.520;2023-11-19T03:47:32;8;8;
43479;PMS5003;29067;35.492;-97.520;2023-11-19T03:49:59;9;8;
43479;PMS5003;29067;35.492;-97.520;2023-11-19T03:52:28;6;6;
43479;PMS5003;29067;35.492;-97.520;2023-11-19T03:54:57;7;7;
43479;PMS5003;29067;35.492;-97.520;2023-11-19T03:57:24;8;6;
43479;PMS5003;29067;35.492;-97.520;2023-11-19T03:59:52;7;7;
43479;PMS5003;29067;35.492;-97.520;2023-11-19T04:02:21;6;6;
43479;PMS5003;29067;35.492;-97.520;2023-11-19T04:04:48;5;5;
43479;PMS5003;29067;35.492;-97.520;2023-11-19T04:07:16;9;8;
43479;PMS5003;29067;35.492;-97.520;2023-11-19T04:09:44;7;7;
43479;PMS5003;29067;35.492;-97.520;2023-11-19T04:12:12;7;7;
43479;PMS5003;29067;35.492;-97.520;2023-11-19T04:14:39;8;7;
43479;PMS5003;29067;35.492;-97.520;2023-11-19T04:17:07;6;6;
43479;PMS5003;29067;35.492;-97.520;2023-11-19T04:19:35;7;6;
43479;PMS5003;29067;35.492;-97.520;2023-11-19T04:22:03;6;6;
43479;PMS5003;29067;35.492;-97.520;2023-11-19T04:24:31;6;6;
43479;PMS5003;29067;35.492;-97.520;2023-11-19T04:26:59;8;6;
43479;PMS5003;29067;35.492;-97.520;2023-11-19T04:29:27;6;6;
43479;PMS5003;29067;35.492;-97.520;2023-11-19T04:31:54;7;7;
43479;PMS5003;29067;35.492;-97.520;2023-11-19T04:34:22;6;6;
43479;PMS5003;29067;35.492;-97.520;2023-11-19T04:36:50;9;8;
43479;PMS5003;29067;35.492;-97.520;2023-11-19T04:39:18;8;8;
43479;PMS5003;29067;35.492;-97.520;2023-11-19T04:41:46;10;9;
43479;PMS5003;29067;35.492;-97.520;2023-11-19T04:44:15;10;7;
43479;PMS5003;29067;35.492;-97.520;2023-11-19T04:46:43;6;6;
43479;PMS5003;29067;35.492;-97.520;2023-11-19T04:49:11;10;9;
43479;PMS5003;29067;35.492;-97.520;2023-11-19T04:51:40;7;7;
43479;PMS5003;29067;35.492;-97.520;2023-11-19T04:54:09;9;8;
43479;PMS5003;29067;35.492;-97.520;2023-11-19T04:56:38;7;7;
43479;PMS5003;29067;35.492;-97.520;2023-11-19T04:59:05;7;7;
43479;PMS5003;29067;35.492;-97.520;2023-11-19T05:01:33;6;6;
43479;PMS5003;29067;35.492;-97.520;2023-11-19T05:04:02;8;8;
43479;PMS5003;29067;35.492;-97.520;2023-11-19T05:06:30;7;7;
43479;PMS5003;29067;35.492;-97.520;2023-11-19T05:08:59;10;9;
43479;PMS5003;29067;35.492;-97.520;2023-11-19T05:11:28;7;6;
43479;PMS5003;29067;35.492;-97.520;2023-11-19T05:13:55;8;8;
43479;PMS5003;29067;35.492;-97.520;2023-11-19T05:16:23;8;8;
43479;PMS5003;29067;35.492;-97.520;2023-11-19T05:18:51;11;9;
43479;PMS5003;29067;35.492;-97.520;2023-11-19T05:21:19;7;7;
43479;PMS5003;29067;35.492;-97.520;2023-11-19T05:23:46;6;6;
43479;PMS5003;29067;35.492;-97.520;2023-11-19T05:26:18;9;8;
43479;PMS5003;29067;35.492;-97.520;2023-11-19T05:28:46;8;8;
43479;PMS5003;29067;35.492;-97.520;2023-11-19T05:31:15;11;11;
43479;PMS5003;29067;35.492;-97.520;2023-11-19T05:33:45;9;8;
43479;PMS5003;29067;35.492;-97.520;2023-11-19T05:36:13;9;9;
43479;PMS5003;29067;35.492;-97.520;2023-11-19T05:38:41;8;8;
43479;PMS5003;29067;35.492;-97.520;2023-11-19T05:41:08;10;10;
43479;PMS5003;29067;35.492;-97.520;2023-11-19T05:43:36;11;10;
43479;PMS5003;29067;35.492;-97.520;2023-11-19T05:46:04;9;7;
43479;PMS5003;29067;35.492;-97.520;2023-11-19T05:48:32;8;7;
43479;PMS5003;29067;35.492;-97.520;2023-11-19T05:50:59;9;8;
43479;PMS5003;29067;35.492;-97.520;2023-11-19T05:53:27;8;8;
43479;PMS5003;29067;35.492;-97.520;2023-11-19T05:55:55;6;6;
43479;PMS5003;29067;35.492;-97.520;2023-11-19T05:58:23;9;8;
43479;PMS5003;29067;35.492;-97.520;2023-11-19T06:00:52;6;6;
43479;PMS5003;29067;35.492;-97.520;2023-11-19T06:03:20;9;7;
43479;PMS5003;29067;35.492;-97.520;2023-11-19T06:05:47;9;9;
43479;PMS5003;29067;35.492;-97.520;2023-11-19T06:08:16;10;10;
43479;PMS5003;29067;35.492;-97.520;2023-11-19T06:10:44;8;8;
43479;PMS5003;29067;35.492;-97.520;2023-11-19T06:13:12;7;7;
43479;PMS5003;29067;35.492;-97.520;2023-11-19T06:15:40;10;8;
43479;PMS5003;29067;35.492;-97.520;2023-11-19T06:18:08;9;8;
43479;PMS5003;29067;35.492;-97.520;2023-11-19T06:20:37;7;7;
43479;PMS5003;29067;35.492;-97.520;2023-11-19T06:23:05;8;8;
43479;PMS5003;29067;35.492;-97.520;2023-11-19T06:25:33;8;8;
43479;PMS5003;29067;35.492;-97.520;2023-11-19T06:28:01;7;7;
43479;PMS5003;29067;35.492;-97.520;2023-11-19T06:30:29;7;6;
43479;PMS5003;29067;35.492;-97.520;2023-11-19T06:32:57;8;8;
43479;PMS5003;29067;35.492;-97.520;2023-11-19T06:35:25;6;6;
43479;PMS5003;29067;35.492;-97.520;2023-11-19T06:37:53;8;8;
43479;PMS5003;29067;35.492;-97.520;2023-11-19T06:40:20;8;8;
43479;PMS5003;29067;35.492;-97.520;2023-11-19T06:42:48;7;7;
43479;PMS5003;29067;35.492;-97.520;2023-11-19T06:45:16;7;7;
43479;PMS5003;29067;35.492;-97.520;2023-11-19T06:47:44;9;9;
43479;PMS5003;29067;35.492;-97.520;2023-11-19T06:50:11;8;8;
43479;PMS5003;29067;35.492;-97.520;2023-11-19T06:52:39;8;7;
43479;PMS5003;29067;35.492;-97.520;2023-11-19T06:55:07;9;7;
43479;PMS5003;29067;35.492;-97.520;2023-11-19T06:57:36;9;9;
43479;PMS5003;29067;35.492;-97.520;2023-11-19T07:00:05;8;8;
43479;PMS5003;29067;35.492;-97.520;2023-11-19T07:02:33;10;9;
43479;PMS5003;29067;35.492;-97.520;2023-11-19T07:05:00;9;8;
43479;PMS5003;29067;35.492;-97.520;2023-11-19T07:07:29;9;9;
43479;PMS5003;29067;35.492;-97.520;2023-11-19T07:09:58;7;7;
43479;PMS5003;29067;35.492;-97.520;2023-11-19T07:12:25;10;9;
43479;PMS5003;29067;35.492;-97.520;2023-11-19T07:14:53;9;8;
43479;PMS5003;29067;35.492;-97.520;2023-11-19T07:17:21;9;8;
43479;PMS5003;29067;35.492;-97.520;2023-11-19T07:19:49;10;10;
43479;PMS5003;29067;35.492;-97.520;2023-11-19T07:22:17;10;9;
43479;PMS5003;29067;35.492;-97.520;2023-11-19T07:24:45;10;9;
43479;PMS5003;29067;35.492;-97.520;2023-11-19T07:27:13;7;7;
43479;PMS5003;29067;35.492;-97.520;2023-11-19T07:29:43;9;9;
43479;PMS5003;29067;35.492;-97.520;2023-11-19T07:32:11;10;10;
43479;PMS5003;29067;35.492;-97.520;2023-11-19T07:34:39;14;10;
43479;PMS5003;29067;35.492;-97.520;2023-11-19T07:37:06;8;8;
43479;PMS5003;29067;35.492;-97.520;2023-11-19T07:39:34;10;9;
43479;PMS5003;29067;35.492;-97.520;2023-11-19T07:42:02;10;8;
43479;PMS5003;29067;35.492;-97.520;2023-11-19T07:44:30;9;9;
43479;PMS5003;29067;35.492;-97.520;2023-11-19T07:46:58;7;7;
43479;PMS5003;29067;35.492;-97.520;2023-11-19T07:49:26;10;9;
43479;PMS5003;29067;35.492;-97.520;2023-11-19T07:51:54;8;8;
43479;PMS5003;29067;35.492;-97.520;2023-11-19T07:54:21;9;9;
43479;PMS5003;29067;35.492;-97.520;2023-11-19T07:56:49;11;10;
43479;PMS5003;29067;35.492;-97.520;2023-11-19T07:59:18;14;13;
43479;PMS5003;29067;35.492;-97.520;2023-11-19T08:01:45;11;11;
43479;PMS5003;29067;35.492;-97.520;2023-11-19T08:04:13;9;9;
43479;PMS5003;29067;35.492;-97.520;2023-11-19T08:06:41;14;13;
43479;PMS5003;29067;35.492;-97.520;2023-11-19T08:09:09;9;9;
43479;PMS5003;29067;35.492;-97.520;2023-11-19T08:11:36;11;10;
43479;PMS5003;29067;35.492;-97.520;2023-11-19T08:14:04;10;9;
43479;PMS5003;29067;35.492;-97.520;2023-11-19T08:16:32;12;9;
43479;PMS5003;29067;35.492;-97.520;2023-11-19T08:18:59;12;9;
43479;PMS5003;29067;35.492;-97.520;2023-11-19T08:21:27;9;9;
43479;PMS5003;29067;35.492;-97.520;2023-11-19T08:23:55;9;9;
43479;PMS5003;29067;35.492;-97.520;2023-11-19T08:26:23;12;10;
43479;PMS5003;29067;35.492;-97.520;2023-11-19T08:28:51;10;10;
43479;PMS5003;29067;35.492;-97.520;2023-11-19T08:31:19;11;11;
43479;PMS5003;29067;35.492;-97.520;2023-11-19T08:33:47;10;9;
43479;PMS5003;29067;35.492;-97.520;2023-11-19T08:36:16;10;9;
43479;PMS5003;29067;35.492;-97.520;2023-11-19T08:38:44;16;14;
43479;PMS5003;29067;35.492;-97.520;2023-11-19T08:41:12;15;15;
43479;PMS5003;29067;35.492;-97.520;2023-11-19T08:43:40;13;12;
43479;PMS5003;29067;35.492;-97.520;2023-11-19T08:46:09;36;35;
43479;PMS5003;29067;35.492;-97.520;2023-11-19T08:48:37;39;39;
43479;PMS5003;29067;35.492;-97.520;2023-11-19T08:51:05;14;13;
43479;PMS5003;29067;35.492;-97.520;2023-11-19T08:53:33;11;9;
43479;PMS5003;29067;35.492;-97.520;2023-11-19T08:56:01;12;12;
43479;PMS5003;29067;35.492;-97.520;2023-11-19T08:58:29;11;11;
43479;PMS5003;29067;35.492;-97.520;2023-11-19T09:00:58;11;11;
43479;PMS5003;29067;35.492;-97.520;2023-11-19T09:03:25;12;12;
43479;PMS5003;29067;35.492;-97.520;2023-11-19T09:05:53;43;42;
43479;PMS5003;29067;35.492;-97.520;2023-11-19T09:08:21;35;30;
43479;PMS5003;29067;35.492;-97.520;2023-11-19T09:10:49;52;51;
43479;PMS5003;29067;35.492;-97.520;2023-11-19T09:13:18;27;26;
43479;PMS5003;29067;35.492;-97.520;2023-11-19T09:15:45;23;21;
43479;PMS5003;29067;35.492;-97.520;2023-11-19T09:18:13;29;26;
43479;PMS5003;29067;35.492;-97.520;2023-11-19T09:20:41;41;40;
43479;PMS5003;29067;35.492;-97.520;2023-11-19T09:23:09;15;14;
43479;PMS5003;29067;35.492;-97.520;2023-11-19T09:25:36;14;13;
43479;PMS5003;29067;35.492;-97.520;2023-11-19T09:28:04;15;15;
43479;PMS5003;29067;35.492;-97.520;2023-11-19T09:30:32;18;18;
43479;PMS5003;29067;35.492;-97.520;2023-11-19T09:33:01;16;16;
43479;PMS5003;29067;35.492;-97.520;2023-11-19T09:35:28;30;29;
43479;PMS5003;29067;35.492;-97.520;2023-11-19T09:37:56;36;36;
43479;PMS5003;29067;35.492;-97.520;2023-11-19T09:40:25;23;19;
43479;PMS5003;29067;35.492;-97.520;2023-11-19T09:42:52;27;26;
43479;PMS5003;29067;35.492;-97.520;2023-11-19T09:45:21;38;38;
43479;PMS5003;29067;35.492;-97.520;2023-11-19T09:47:54;32;32;
43479;PMS5003;29067;35.492;-97.520;2023-11-19T09:50:23;25;24;
43479;PMS5003;29067;35.492;-97.520;2023-11-19T09:52:51;26;26;
43479;PMS5003;29067;35.492;-97.520;2023-11-19T09:55:19;30;28;
43479;PMS5003;29067;35.492;-97.520;2023-11-19T09:57:47;41;41;
43479;PMS5003;29067;35.492;-97.520;2023-11-19T10:00:19;23;23;
43479;PMS5003;29067;35.492;-97.520;2023-11-19T10:02:49;22;22;
43479;PMS5003;29067;35.492;-97.520;2023-11-19T10:05:17;15;15;
43479;PMS5003;29067;35.492;-97.520;2023-11-19T10:07:46;19;18;
43479;PMS5003;29067;35.492;-97.520;2023-11-19T10:10:15;27;27;
43479;PMS5003;29067;35.492;-97.520;2023-11-19T10:12:42;26;26;
43479;PMS5003;29067;35.492;-97.520;2023-11-19T10:15:11;31;30;
43479;PMS5003;29067;35.492;-97.520;2023-11-19T10:17:48;17;16;
43479;PMS5003;29067;35.492;-97.520;2023-11-19T10:20:16;17;17;
43479;PMS5003;29067;35.492;-97.520;2023-11-19T10:22:44;16;13;
43479;PMS5003;29067;35.492;-97.520;2023-11-19T10:25:21;13;13;
43479;PMS5003;29067;35.492;-97.520;2023-11-19T10:27:50;15;14;
43479;PMS5003;29067;35.492;-97.520;2023-11-19T10:30:20;9;9;
43479;PMS5003;29067;35.492;-97.520;2023-11-19T10:33:02;21;18;
43479;PMS5003;29067;35.492;-97.520;2023-11-19T10:35:31;14;13;
43479;PMS5003;29067;35.492;-97.520;2023-11-19T10:38:00;13;11;
43479;PMS5003;29067;35.492;-97.520;2023-11-19T10:40:40;13;13;
43479;PMS5003;29067;35.492;-97.520;2023-11-19T10:43:08;13;13;
43479;PMS5003;29067;35.492;-97.520;2023-11-19T10:45:36;13;13;
43479;PMS5003;29067;35.492;-97.520;2023-11-19T10:48:05;14;14;
43479;PMS5003;29067;35.492;-97.520;2023-11-19T10:50:34;13;13;
43479;PMS5003;29067;35.492;-97.520;2023-11-19T10:53:03;16;15;
43479;PMS5003;29067;35.492;-97.520;2023-11-19T10:55:32;12;12;
43479;PMS5003;29067;35.492;-97.520;2023-11-19T10:58:01;15;14;
43479;PMS5003;29067;35.492;-97.520;2023-11-19T11:00:33;14;14;
43479;PMS5003;29067;35.492;-97.520;2023-11-19T11:03:10;13;12;
43479;PMS5003;29067;35.492;-97.520;2023-11-19T11:05:41;15;13;
43479;PMS5003;29067;35.492;-97.520;2023-11-19T11:08:12;17;14;
43479;PMS5003;29067;35.492;-97.520;2023-11-19T11:10:43;14;13;
43479;PMS5003;29067;35.492;-97.520;2023-11-19T11:13:15;13;13;
43479;PMS5003;29067;35.492;-97.520;2023-11-19T11:15:43;15;15;
43479;PMS5003;29067;35.492;-97.520;2023-11-19T11:18:12;21;18;
43479;PMS5003;29067;35.492;-97.520;2023-11-19T11:20:40;15;15;
43479;PMS5003;29067;35.492;-97.520;2023-11-19T11:23:16;17;17;
43479;PMS5003;29067;35.492;-97.520;2023-11-19T11:26:06;17;16;
43479;PMS5003;29067;35.492;-97.520;2023-11-19T11:28:51;20;18;
43479;PMS5003;29067;35.492;-97.520;2023-11-19T11:31:30;25;21;
43479;PMS5003;29067;35.492;-97.520;2023-11-19T11:34:07;24;21;
43479;PMS5003;29067;35.492;-97.520;2023-11-19T11:37:16;23;19;
43479;PMS5003;29067;35.492;-97.520;2023-11-19T11:39:52;19;18;
43479;PMS5003;29067;35.492;-97.520;2023-11-19T11:42:36;21;19;
43479;PMS5003;29067;35.492;-97.520;2023-11-19T11:45:05;21;20;
43479;PMS5003;29067;35.492;-97.520;2023-11-19T11:48:40;28;26;
43479;PMS5003;29067;35.492;-97.520;2023-11-19T11:51:13;22;21;
43479;PMS5003;29067;35.492;-97.520;2023-11-19T11:53:42;32;26;
43479;PMS5003;29067;35.492;-97.520;2023-11-19T11:56:10;45;39;
43479;PMS5003;29067;35.492;-97.520;2023-11-19T11:58:40;38;35;
43479;PMS5003;29067;35.492;-97.520;2023-11-19T12:03:00;40;35;
43479;PMS5003;29067;35.492;-97.520;2023-11-19T12:05:29;35;32;
43479;PMS5003;29067;35.492;-97.520;2023-11-19T12:07:59;66;63;
43479;PMS5003;29067;35.492;-97.520;2023-11-19T12:10:29;45;42;
43479;PMS5003;29067;35.492;-97.520;2023-11-19T12:12:58;23;23;
43479;PMS5003;29067;35.492;-97.520;2023-11-19T12:15:27;77;75;
43479;PMS5003;29067;35.492;-97.520;2023-11-19T12:17:54;30;24;
43479;PMS5003;29067;35.492;-97.520;2023-11-19T12:20:23;32;30;
43479;PMS5003;29067;35.492;-97.520;2023-11-19T12:22:52;35;30;
43479;PMS5003;29067;35.492;-97.520;2023-11-19T12:25:21;32;28;
43479;PMS5003;29067;35.492;-97.520;2023-11-19T12:27:49;25;23;
43479;PMS5003;29067;35.492;-97.520;2023-11-19T12:30:20;29;25;
43479;PMS5003;29067;35.492;-97.520;2023-11-19T12:32:49;31;25;
43479;PMS5003;29067;35.492;-97.520;2023-11-19T12:35:18;38;33;
43479;PMS5003;29067;35.492;-97.520;2023-11-19T12:37:47;42;36;
43479;PMS5003;29067;35.492;-97.520;2023-11-19T12:40:17;43;37;
43479;PMS5003;29067;35.492;-97.520;2023-11-19T12:42:45;38;35;
43479;PMS5003;29067;35.492;-97.520;2023-11-19T12:45:14;40;35;
43479;PMS5003;29067;35.492;-97.520;2023-11-19T12:47:43;36;30;
43479;PMS5003;29067;35.492;-97.520;2023-11-19T12:50:11;36;34;
43479;PMS5003;29067;35.492;-97.520;2023-11-19T12:52:39;33;29;
43479;PMS5003;29067;35.492;-97.520;2023-11-19T12:55:24;33;28;
43479;PMS5003;29067;35.492;-97.520;2023-11-19T12:57:53;42;38;
43479;PMS5003;29067;35.492;-97.520;2023-11-19T13:00:23;40;35;
43479;PMS5003;29067;35.492;-97.520;2023-11-19T13:02:52;59;53;
43479;PMS5003;29067;35.492;-97.520;2023-11-19T13:05:26;31;26;
43479;PMS5003;29067;35.492;-97.520;2023-11-19T13:07:58;36;31;
43479;PMS5003;29067;35.492;-97.520;2023-11-19T13:10:28;45;39;
43479;PMS5003;29067;35.492;-97.520;2023-11-19T13:13:01;52;48;
43479;PMS5003;29067;35.492;-97.520;2023-11-19T13:15:31;62;56;
43479;PMS5003;29067;35.492;-97.520;2023-11-19T13:17:59;61;55;
43479;PMS5003;29067;35.492;-97.520;2023-11-19T13:20:27;47;42;
43479;PMS5003;29067;35.492;-97.520;2023-11-19T13:22:57;45;43;
43479;PMS5003;29067;35.492;-97.520;2023-11-19T13:25:26;44;40;
43479;PMS5003;29067;35.492;-97.520;2023-11-19T13:27:54;55;49;
43479;PMS5003;29067;35.492;-97.520;2023-11-19T13:30:24;51;46;
43479;PMS5003;29067;35.492;-97.520;2023-11-19T13:32:53;54;49;
43479;PMS5003;29067;35.492;-97.520;2023-11-19T13:35:21;81;75;
43479;PMS5003;29067;35.492;-97.520;2023-11-19T13:37:49;42;35;
43479;PMS5003;29067;35.492;-97.520;2023-11-19T13:40:18;24;23;
43479;PMS5003;29067;35.492;-97.520;2023-11-19T13:42:46;21;20;
43479;PMS5003;29067;35.492;-97.520;2023-11-19T13:45:14;29;23;
43479;PMS5003;29067;35.492;-97.520;2023-11-19T13:47:43;22;22;
43479;PMS5003;29067;35.492;-97.520;2023-11-19T13:50:13;23;22;
43479;PMS5003;29067;35.492;-97.520;2023-11-19T13:52:43;24;22;
43479;PMS5003;29067;35.492;-97.520;2023-11-19T13:55:12;20;20;
43479;PMS5003;29067;35.492;-97.520;2023-11-19T13:57:40;21;18;
43479;PMS5003;29067;35.492;-97.520;2023-11-19T14:00:09;19;17;
43479;PMS5003;29067;35.492;-97.520;2023-11-19T14:02:38;16;16;
43479;PMS5003;29067;35.492;-97.520;2023-11-19T14:05:07;22;19;
43479;PMS5003;29067;35.492;-97.520;2023-11-19T14:07:35;26;23;
43479;PMS5003;29067;35.492;-97.520;2023-11-19T14:10:03;36;33;
43479;PMS5003;29067;35.492;-97.520;2023-11-19T14:12:32;47;46;
43479;PMS5003;29067;35.492;-97.520;2023-11-19T14:15:01;58;56;
43479;PMS5003;29067;35.492;-97.520;2023-11-19T14:17:29;42;42;
43479;PMS5003;29067;35.492;-97.520;2023-11-19T14:19:57;73;71;
43479;PMS5003;29067;35.492;-97.520;2023-11-19T14:22:25;30;24;
43479;PMS5003;29067;35.492;-97.520;2023-11-19T14:24:53;46;44;
43479;PMS5003;29067;35.492;-97.520;2023-11-19T14:27:21;59;56;
43479;PMS5003;29067;35.492;-97.520;2023-11-19T14:29:49;27;27;
43479;PMS5003;29067;35.492;-97.520;2023-11-19T14:32:17;20;20;
43479;PMS5003;29067;35.492;-97.520;2023-11-19T14:34:45;25;24;
43479;PMS5003;29067;35.492;-97.520;2023-11-19T14:37:13;24;20;
43479;PMS5003;29067;35.492;-97.520;2023-11-19T14:39:40;44;43;
43479;PMS5003;29067;35.492;-97.520;2023-11-19T14:42:09;38;37;
43479;PMS5003;29067;35.492;-97.520;2023-11-19T14:44:37;42;40;
43479;PMS5003;29067;35.492;-97.520;2023-11-19T14:47:05;23;19;
43479;PMS5003;29067;35.492;-97.520;2023-11-19T14:49:34;16;16;
43479;PMS5003;29067;35.492;-97.520;2023-11-19T14:52:03;18;17;
43479;PMS5003;29067;35.492;-97.520;2023-11-19T14:54:31;20;20;
43479;PMS5003;29067;35.492;-97.520;2023-11-19T14:57:00;19;18;
43479;PMS5003;29067;35.492;-97.520;2023-11-19T14:59:28;18;18;
43479;PMS5003;29067;35.492;-97.520;2023-11-19T15:01:56;20;19;
43479;PMS5003;29067;35.492;-97.520;2023-11-19T15:04:23;19;18;
43479;PMS5003;29067;35.492;-97.520;2023-11-19T15:06:51;21;20;
43479;PMS5003;29067;35.492;-97.520;2023-11-19T15:09:20;20;20;
43479;PMS5003;29067;35.492;-97.520;2023-11-19T15:11:48;19;18;
43479;PMS5003;29067;35.492;-97.520;2023-11-19T15:14:16;20;18;
43479;PMS5003;29067;35.492;-97.520;2023-11-19T15:16:44;19;18;
43479;PMS5003;29067;35.492;-97.520;2023-11-19T15:19:13;19;17;
43479;PMS5003;29067;35.492;-97.520;2023-11-19T15:21:41;25;19;
43479;PMS5003;29067;35.492;-97.520;2023-11-19T15:24:09;22;20;
43479;PMS5003;29067;35.492;-97.520;2023-11-19T15:26:37;19;18;
43479;PMS5003;29067;35.492;-97.520;2023-11-19T15:29:05;19;18;
43479;PMS5003;29067;35.492;-97.520;2023-11-19T15:31:32;27;20;
43479;PMS5003;29067;35.492;-97.520;2023-11-19T15:34:01;21;19;
43479;PMS5003;29067;35.492;-97.520;2023-11-19T15:36:28;21;19;
43479;PMS5003;29067;35.492;-97.520;2023-11-19T15:38:56;21;20;
43479;PMS5003;29067;35.492;-97.520;2023-11-19T15:41:25;19;19;
43479;PMS5003;29067;35.492;-97.520;2023-11-19T15:43:54;21;20;
43479;PMS5003;29067;35.492;-97.520;2023-11-19T15:46:21;29;25;
43479;PMS5003;29067;35.492;-97.520;2023-11-19T15:48:49;19;19;
43479;PMS5003;29067;35.492;-97.520;2023-11-19T15:51:17;31;27;
43479;PMS5003;29067;35.492;-97.520;2023-11-19T15:53:45;28;26;
43479;PMS5003;29067;35.492;-97.520;2023-11-19T15:56:12;49;48;
43479;PMS5003;29067;35.492;-97.520;2023-11-19T15:58:40;24;24;
43479;PMS5003;29067;35.492;-97.520;2023-11-19T16:01:08;34;26;
43479;PMS5003;29067;35.492;-97.520;2023-11-19T16:03:36;29;26;
43479;PMS5003;29067;35.492;-97.520;2023-11-19T16:06:04;30;27;
43479;PMS5003;29067;35.492;-97.520;2023-11-19T16:08:32;24;22;
43479;PMS5003;29067;35.492;-97.520;2023-11-19T16:11:00;21;21;
43479;PMS5003;29067;35.492;-97.520;2023-11-19T16:13:28;25;23;